Time;durP1;ratioP1;P1;durP2;ratioP2;P2;SDS_P1;SDS_P2;PMS_P1;PMS_P2;Temp;Humidity;BMP_temperature;BMP_pressure;BME280_temperature;BME280_humidity;BME280_pressure;Samples;Min_cycle;Max_cycle;Signal;HPM_P1;HPM_P2
2022/06/28 00:01:30;;;;;;;4.55;1.50;;;17.60;99.90;;;;;;5055655;28;20102;-48
2022/06/28 00:03:55;;;;;;;2.45;2.25;;;17.60;99.90;;;;;;5054936;28;20041;-52
2022/06/28 00:06:21;;;;;;;1.25;1.10;;;17.60;99.90;;;;;;5055132;28;20043;-50
2022/06/28 00:08:46;;;;;;;1.65;1.33;;;17.50;99.90;;;;;;5054248;28;20063;-48
2022/06/28 00:11:12;;;;;;;7.03;1.20;;;17.50;99.90;;;;;;5055208;28;20071;-47
2022/06/28 00:13:37;;;;;;;4.88;1.27;;;17.40;99.90;;;;;;5055174;28;20079;-48
2022/06/28 00:16:06;;;;;;;3.83;1.40;;;17.40;99.90;;;;;;5053721;28;20476;-46
2022/06/28 00:18:37;;;;;;;4.50;1.27;;;17.30;99.90;;;;;;5053981;28;20029;-49
2022/06/28 00:21:06;;;;;;;1.10;1.10;;;17.30;99.90;;;;;;5054727;28;20029;-47
2022/06/28 00:23:32;;;;;;;5.07;1.40;;;17.20;99.90;;;;;;5054657;28;20039;-47
2022/06/28 00:25:57;;;;;;;1.88;1.73;;;17.20;99.90;;;;;;5054575;28;20025;-47
2022/06/28 00:28:23;;;;;;;1.80;1.20;;;17.10;99.90;;;;;;5053844;28;20025;-46
2022/06/28 00:30:48;;;;;;;2.65;1.75;;;17.10;99.90;;;;;;5054583;28;20021;-47
2022/06/28 00:33:14;;;;;;;2.00;1.63;;;17.00;99.90;;;;;;5054469;28;20032;-48
2022/06/28 00:35:39;;;;;;;3.65;1.48;;;17.00;99.90;;;;;;5054344;28;20075;-47
2022/06/28 00:38:05;;;;;;;1.50;1.40;;;17.00;99.90;;;;;;5053662;28;20025;-47
2022/06/28 00:40:32;;;;;;;5.28;1.48;;;16.90;99.90;;;;;;5036408;28;20087;-49
2022/06/28 00:42:58;;;;;;;1.60;1.50;;;16.90;99.90;;;;;;5054373;28;20088;-47
2022/06/28 00:45:24;;;;;;;2.90;1.52;;;16.90;99.90;;;;;;5054159;28;20071;-48
2022/06/28 00:47:50;;;;;;;2.95;1.75;;;16.90;99.90;;;;;;5053587;28;20045;-48
2022/06/28 00:50:17;;;;;;;3.85;1.70;;;16.90;99.90;;;;;;5054163;28;20475;-46
2022/06/28 00:53:06;;;;;;;6.35;1.48;;;16.90;99.90;;;;;;5054543;28;20546;-47
2022/06/28 00:55:31;;;;;;;3.63;1.65;;;16.90;99.90;;;;;;5053972;28;20016;-49
2022/06/28 00:57:57;;;;;;;5.30;1.40;;;16.90;99.90;;;;;;5053372;28;20484;-47
2022/06/28 01:00:23;;;;;;;5.82;1.80;;;16.90;99.90;;;;;;5054046;28;20024;-48
2022/06/28 01:02:48;;;;;;;7.65;2.88;;;16.80;99.90;;;;;;5054072;28;20063;-48
2022/06/28 01:05:14;;;;;;;2.58;2.15;;;16.80;99.90;;;;;;5053826;28;20553;-47
2022/06/28 01:07:40;;;;;;;1.98;1.88;;;16.70;99.90;;;;;;5053127;28;20033;-47
2022/06/28 01:10:06;;;;;;;4.03;1.70;;;16.60;99.90;;;;;;5053913;28;20021;-47
2022/06/28 01:12:32;;;;;;;6.68;1.95;;;16.60;99.90;;;;;;5053825;28;20028;-48
2022/06/28 01:14:57;;;;;;;2.65;1.65;;;16.60;99.90;;;;;;5035822;28;20481;-46
2022/06/28 01:17:23;;;;;;;1.70;1.40;;;16.50;99.90;;;;;;5051306;28;20025;-48
2022/06/28 01:19:48;;;;;;;1.73;1.58;;;16.50;99.90;;;;;;5053567;28;20036;-50
2022/06/28 01:22:17;;;;;;;2.55;1.50;;;16.50;99.90;;;;;;5053736;28;20508;-47
2022/06/28 01:24:43;;;;;;;4.32;1.92;;;16.50;99.90;;;;;;5053510;28;20030;-48
2022/06/28 01:27:09;;;;;;;6.70;1.92;;;16.40;99.90;;;;;;5052690;28;20033;-49
2022/06/28 01:29:34;;;;;;;7.38;1.60;;;16.40;99.90;;;;;;5053675;28;20025;-47
2022/06/28 01:32:00;;;;;;;3.40;1.90;;;16.40;99.90;;;;;;5053425;28;20025;-48
2022/06/28 01:34:26;;;;;;;5.65;1.60;;;16.30;99.90;;;;;;5053271;28;20036;-50
2022/06/28 01:36:51;;;;;;;1.75;1.48;;;16.20;99.90;;;;;;5052902;28;20108;-46
2022/06/28 01:39:17;;;;;;;4.05;1.95;;;16.20;99.90;;;;;;5053349;28;20042;-48
2022/06/28 01:41:43;;;;;;;2.03;1.70;;;16.20;99.90;;;;;;5035328;28;20025;-47
2022/06/28 01:44:09;;;;;;;3.50;2.38;;;16.20;99.90;;;;;;5053079;28;20087;-47
2022/06/28 01:46:37;;;;;;;4.78;2.10;;;16.10;99.90;;;;;;5053093;28;20400;-47
2022/06/28 01:49:05;;;;;;;4.25;1.92;;;16.00;99.90;;;;;;5052244;28;20083;-46
2022/06/28 01:51:30;;;;;;;5.75;1.85;;;16.00;99.90;;;;;;5053160;28;20456;-47
2022/06/28 01:53:56;;;;;;;3.33;2.17;;;16.00;99.90;;;;;;5052901;28;20033;-48
2022/06/28 01:56:21;;;;;;;2.15;1.88;;;16.00;99.90;;;;;;5053340;28;20383;-47
2022/06/28 01:58:47;;;;;;;6.32;2.38;;;16.00;99.90;;;;;;5052273;28;20025;-48
2022/06/28 02:01:13;;;;;;;6.55;2.30;;;15.90;99.90;;;;;;5052813;28;20021;-47
2022/06/28 02:03:40;;;;;;;3.90;3.00;;;16.00;99.90;;;;;;5052017;28;20068;-47
2022/06/28 02:06:06;;;;;;;2.78;1.73;;;15.90;99.90;;;;;;5052875;28;20021;-46
2022/06/28 02:08:34;;;;;;;3.83;1.98;;;15.90;99.90;;;;;;5051922;28;20040;-46
2022/06/28 02:11:00;;;;;;;7.93;2.10;;;15.80;99.90;;;;;;5052718;28;20014;-47
2022/06/28 02:13:26;;;;;;;3.88;1.92;;;15.80;99.90;;;;;;5034805;28;20025;-47
2022/06/28 02:15:52;;;;;;;3.00;2.45;;;15.70;99.90;;;;;;5051288;28;20122;-47
2022/06/28 02:18:17;;;;;;;4.20;2.75;;;15.70;99.90;;;;;;5051748;28;20118;-48
2022/06/28 02:20:43;;;;;;;3.20;2.00;;;15.70;99.90;;;;;;5052511;28;20076;-51
2022/06/28 02:23:09;;;;;;;6.88;2.10;;;15.70;99.90;;;;;;5052419;28;20021;-48
2022/06/28 02:25:34;;;;;;;4.68;1.90;;;15.70;99.90;;;;;;5052201;28;20021;-46
2022/06/28 02:27:59;;;;;;;2.45;2.25;;;15.60;99.90;;;;;;5051601;28;20476;-47
2022/06/28 02:30:25;;;;;;;9.18;2.03;;;15.60;99.90;;;;;;5052366;28;20021;-47
2022/06/28 02:32:50;;;;;;;7.35;2.58;;;15.60;99.90;;;;;;5052487;28;20017;-47
2022/06/28 02:40:44;;;;;;;2.70;2.50;;;15.60;99.90;;;;;;5052284;28;20032;-50
2022/06/28 02:43:10;;;;;;;4.88;4.25;;;15.50;99.90;;;;;;5052309;28;20029;-47
2022/06/28 02:45:35;;;;;;;3.85;2.88;;;15.60;99.90;;;;;;5051812;28;20056;-47
2022/06/28 02:48:02;;;;;;;4.90;2.42;;;15.50;99.90;;;;;;5051546;28;20036;-48
2022/06/28 02:50:28;;;;;;;3.55;3.25;;;15.50;99.90;;;;;;5052299;28;20493;-48
2022/06/28 02:52:54;;;;;;;3.60;3.25;;;15.50;99.90;;;;;;5052097;28;20044;-49
2022/06/28 02:55:20;;;;;;;5.28;3.55;;;15.60;99.90;;;;;;5033872;28;20025;-47
2022/06/28 02:57:45;;;;;;;9.48;4.55;;;15.60;99.90;;;;;;5051060;28;20053;-49
2022/06/28 03:00:15;;;;;;;4.43;3.58;;;15.60;99.90;;;;;;5051792;28;20045;-48
2022/06/28 03:02:41;;;;;;;4.90;3.70;;;15.50;99.90;;;;;;5051785;28;20028;-48
2022/06/28 03:05:09;;;;;;;5.88;3.83;;;15.50;99.90;;;;;;5051538;28;20059;-46
2022/06/28 03:07:35;;;;;;;6.53;4.13;;;15.50;99.90;;;;;;5051102;28;20029;-50
2022/06/28 03:10:00;;;;;;;5.43;4.03;;;15.50;99.90;;;;;;5051597;28;20021;-47
2022/06/28 03:12:26;;;;;;;6.55;4.53;;;15.50;99.90;;;;;;5051667;28;20083;-47
2022/06/28 03:14:52;;;;;;;5.15;4.65;;;15.50;99.90;;;;;;5050546;28;20082;-49
2022/06/28 03:17:17;;;;;;;5.18;4.60;;;15.50;99.90;;;;;;5031788;28;20358;-47
2022/06/28 03:19:43;;;;;;;3.95;3.55;;;15.50;99.90;;;;;;5051368;28;20033;-47
2022/06/28 03:22:08;;;;;;;4.13;3.72;;;15.50;99.90;;;;;;5051580;28;20061;-51
2022/06/28 03:24:34;;;;;;;8.55;4.03;;;15.50;99.90;;;;;;5051380;28;20033;-46
2022/06/28 03:26:59;;;;;;;3.58;3.28;;;15.50;99.90;;;;;;5050553;28;20036;-47
2022/06/28 03:29:25;;;;;;;5.28;4.22;;;15.50;99.90;;;;;;5051237;28;20082;-50
2022/06/28 03:31:50;;;;;;;6.30;4.35;;;15.50;99.90;;;;;;5051306;28;20025;-48
2022/06/28 03:34:17;;;;;;;5.07;3.10;;;15.50;99.90;;;;;;5051198;28;20021;-47
2022/06/28 03:36:42;;;;;;;3.15;2.85;;;15.60;99.90;;;;;;5051022;28;20029;-48
2022/06/28 03:39:08;;;;;;;4.10;3.22;;;15.60;99.90;;;;;;5050968;28;20396;-48
2022/06/28 03:41:33;;;;;;;4.97;3.08;;;15.50;99.90;;;;;;5051300;28;20029;-51
2022/06/28 03:43:59;;;;;;;4.50;3.08;;;15.50;99.90;;;;;;5051018;28;20048;-47
2022/06/28 03:46:25;;;;;;;6.18;3.83;;;15.50;99.90;;;;;;5051258;28;20040;-47
2022/06/28 03:48:50;;;;;;;6.53;3.42;;;15.50;99.90;;;;;;5050348;28;20535;-47
2022/06/28 03:51:16;;;;;;;5.13;2.58;;;15.50;99.90;;;;;;5051227;28;20076;-47
2022/06/28 03:53:42;;;;;;;3.70;2.78;;;15.50;99.90;;;;;;5051070;28;20033;-50
2022/06/28 03:56:07;;;;;;;4.78;3.22;;;15.60;99.90;;;;;;5051141;28;20101;-47
2022/06/28 03:58:33;;;;;;;7.00;3.08;;;15.60;99.90;;;;;;5050428;28;20100;-49
2022/06/28 04:00:59;;;;;;;5.63;3.15;;;15.70;99.90;;;;;;5051178;28;20077;-48
2022/06/28 04:03:24;;;;;;;4.82;2.92;;;15.70;99.90;;;;;;5051164;28;20083;-53
2022/06/28 04:05:50;;;;;;;5.65;3.50;;;15.80;99.90;;;;;;5050807;28;20071;-48
2022/06/28 04:08:16;;;;;;;4.00;2.92;;;15.80;99.90;;;;;;5050308;28;20447;-49
2022/06/28 04:10:43;;;;;;;6.93;3.15;;;15.80;99.90;;;;;;5045710;28;20454;-47
2022/06/28 04:13:09;;;;;;;4.15;3.70;;;15.90;99.90;;;;;;5016565;28;20104;-47
2022/06/28 04:15:35;;;;;;;4.20;3.08;;;15.90;99.90;;;;;;5034046;28;20070;-46
2022/06/28 04:18:01;;;;;;;3.78;3.10;;;15.90;99.90;;;;;;5050166;28;20028;-48
2022/06/28 04:20:26;;;;;;;3.80;3.10;;;15.90;99.90;;;;;;5051146;28;20028;-48
2022/06/28 04:22:52;;;;;;;5.20;2.83;;;16.00;99.90;;;;;;5049321;28;20104;-49
2022/06/28 04:25:17;;;;;;;6.00;3.00;;;16.10;99.90;;;;;;5046157;28;20033;-48
2022/06/28 04:27:43;;;;;;;3.65;3.33;;;16.20;99.90;;;;;;5053177;28;20037;-48
2022/06/28 04:30:10;;;;;;;4.57;2.78;;;16.20;99.90;;;;;;5036070;28;20029;-47
2022/06/28 04:32:35;;;;;;;6.63;3.20;;;16.30;99.90;;;;;;5039730;28;20535;-46
2022/06/28 04:35:01;;;;;;;7.05;2.67;;;16.40;99.90;;;;;;5052744;28;20029;-47
2022/06/28 04:37:27;;;;;;;5.95;4.55;;;16.60;99.90;;;;;;5058679;28;20555;-51
2022/06/28 04:39:52;;;;;;;5.78;3.78;;;16.70;99.90;;;;;;5054490;28;20488;-49
2022/06/28 04:42:18;;;;;;;4.60;3.85;;;16.80;99.90;;;;;;5054437;28;20029;-47
2022/06/28 04:44:44;;;;;;;6.18;4.13;;;16.90;99.90;;;;;;5054109;28;20041;-47
2022/06/28 04:47:09;;;;;;;4.90;3.90;;;17.00;99.90;;;;;;5052739;28;20431;-47
2022/06/28 04:49:35;;;;;;;7.15;4.10;;;17.10;99.90;;;;;;5054112;28;20021;-48
2022/06/28 04:52:01;;;;;;;4.90;4.28;;;17.20;99.90;;;;;;5049612;28;20025;-49
2022/06/28 04:54:27;;;;;;;7.30;4.20;;;17.30;99.90;;;;;;5054110;28;20017;-48
2022/06/28 04:56:52;;;;;;;6.38;4.15;;;17.40;99.90;;;;;;5053256;28;20025;-48
2022/06/28 04:59:18;;;;;;;8.05;3.40;;;17.80;99.90;;;;;;5054091;28;20389;-49
2022/06/28 05:01:44;;;;;;;4.22;3.63;;;18.30;99.90;;;;;;5054167;28;20032;-49
2022/06/28 05:04:09;;;;;;;4.72;2.90;;;19.00;99.90;;;;;;5064624;28;20505;-51
2022/06/28 05:06:35;;;;;;;4.45;3.40;;;19.80;99.90;;;;;;5061216;28;20040;-48
2022/06/28 05:09:00;;;;;;;9.02;2.90;;;20.50;99.90;;;;;;5061457;28;20080;-47
2022/06/28 05:11:26;;;;;;;5.95;2.67;;;21.50;99.90;;;;;;5063760;28;20112;-50
2022/06/28 05:13:51;;;;;;;3.38;2.78;;;22.20;99.90;;;;;;5055294;28;20017;-50
2022/06/28 05:16:17;;;;;;;13.07;2.70;;;22.80;99.50;;;;;;5046014;28;20100;-50
2022/06/28 05:18:43;;;;;;;3.25;2.90;;;23.10;98.70;;;;;;5033086;28;20026;-47
2022/06/28 05:21:08;;;;;;;7.05;2.53;;;23.50;98.00;;;;;;5042468;28;20051;-48
2022/06/28 05:23:34;;;;;;;6.05;2.78;;;24.00;97.40;;;;;;5053818;28;20040;-53
2022/06/28 05:25:59;;;;;;;2.83;2.47;;;24.60;96.30;;;;;;5053580;28;20040;-52
2022/06/28 05:28:25;;;;;;;3.60;2.20;;;24.60;96.00;;;;;;5051807;28;20029;-48
2022/06/28 05:30:51;;;;;;;6.45;2.33;;;24.90;95.60;;;;;;5055589;28;20102;-51
2022/06/28 05:33:16;;;;;;;2.45;2.25;;;25.20;95.30;;;;;;5059211;28;20021;-49
2022/06/28 05:35:42;;;;;;;3.75;1.70;;;25.60;94.50;;;;;;5055347;28;20291;-49
2022/06/28 05:38:07;;;;;;;4.82;2.42;;;26.20;93.50;;;;;;5050740;28;20036;-50
2022/06/28 05:40:33;;;;;;;2.40;1.90;;;26.50;93.40;;;;;;5053187;28;20033;-49
2022/06/28 05:42:59;;;;;;;3.38;2.20;;;27.30;91.80;;;;;;5053060;28;20064;-50
2022/06/28 05:45:25;;;;;;;3.67;2.50;;;28.00;90.30;;;;;;5053866;28;20404;-50
2022/06/28 05:47:51;;;;;;;2.30;2.10;;;28.00;89.70;;;;;;5052256;28;20039;-51
2022/06/28 05:50:17;;;;;;;4.32;2.60;;;28.10;88.60;;;;;;5053921;28;20070;-50
2022/06/28 05:52:42;;;;;;;7.53;2.55;;;28.10;88.60;;;;;;5055832;28;20027;-52
2022/06/28 05:55:08;;;;;;;3.03;2.83;;;28.10;87.80;;;;;;5057534;28;20482;-52
2022/06/28 05:57:33;;;;;;;3.35;2.40;;;28.20;86.70;;;;;;5057385;28;20067;-51
2022/06/28 05:59:59;;;;;;;8.05;2.95;;;28.30;86.70;;;;;;5058073;28;20025;-51
2022/06/28 06:02:24;;;;;;;9.02;3.20;;;28.50;85.70;;;;;;5058132;28;20051;-52
2022/06/28 06:04:50;;;;;;;3.45;2.25;;;28.60;85.90;;;;;;5058502;28;20023;-54
2022/06/28 06:07:16;;;;;;;3.83;2.60;;;28.70;84.70;;;;;;5056487;28;20025;-55
2022/06/28 06:09:42;;;;;;;3.47;2.88;;;28.60;83.60;;;;;;5057601;28;20086;-55
2022/06/28 06:12:08;;;;;;;3.25;2.63;;;28.80;83.80;;;;;;5057449;28;20025;-52
2022/06/28 06:14:33;;;;;;;5.10;2.22;;;29.30;81.90;;;;;;5058469;28;20373;-52
2022/06/28 06:16:59;;;;;;;5.32;1.73;;;28.90;82.10;;;;;;5038667;28;20035;-51
2022/06/28 06:19:24;;;;;;;3.50;2.40;;;29.00;81.90;;;;;;5057525;28;20025;-55
2022/06/28 06:21:50;;;;;;;4.47;2.05;;;29.30;80.70;;;;;;5057831;28;20033;-53
2022/06/28 06:24:15;;;;;;;3.70;2.42;;;29.60;80.30;;;;;;5057816;28;20032;-49
2022/06/28 06:26:41;;;;;;;3.30;1.63;;;29.80;80.00;;;;;;5057683;28;20395;-51
2022/06/28 06:29:07;;;;;;;4.90;1.58;;;29.60;78.80;;;;;;5057174;28;20550;-53
2022/06/28 06:31:33;;;;;;;2.80;1.67;;;29.40;78.80;;;;;;5057663;28;20040;-52
2022/06/28 06:33:58;;;;;;;3.08;1.70;;;29.50;77.70;;;;;;5057673;28;20025;-53
2022/06/28 06:36:24;;;;;;;2.97;1.92;;;29.70;77.80;;;;;;5057541;28;20083;-52
2022/06/28 06:38:49;;;;;;;2.13;1.65;;;29.80;77.00;;;;;;5056823;28;20033;-54
2022/06/28 06:41:15;;;;;;;5.35;1.67;;;29.80;77.70;;;;;;5057464;28;20033;-54
2022/06/28 06:43:40;;;;;;;2.90;2.00;;;29.90;77.30;;;;;;5056575;28;20044;-53
2022/06/28 06:46:06;;;;;;;1.92;1.60;;;29.30;76.70;;;;;;5056957;28;20029;-51
2022/06/28 06:48:31;;;;;;;5.18;1.98;;;29.80;76.20;;;;;;5055008;28;20047;-49
2022/06/28 06:50:57;;;;;;;3.08;1.70;;;30.00;74.90;;;;;;5055217;28;20083;-48
2022/06/28 06:53:23;;;;;;;1.60;1.38;;;30.20;74.60;;;;;;5054612;28;20034;-51
2022/06/28 06:55:48;;;;;;;3.20;1.38;;;30.10;73.20;;;;;;5054951;28;20017;-49
2022/06/28 06:58:14;;;;;;;3.58;1.40;;;29.70;73.20;;;;;;5056974;28;20059;-50
2022/06/28 07:00:40;;;;;;;3.95;1.33;;;29.80;74.60;;;;;;5061809;28;20103;-48
2022/06/28 07:03:06;;;;;;;3.20;1.30;;;29.80;74.10;;;;;;5061346;28;20512;-51
2022/06/28 07:05:32;;;;;;;3.20;1.55;;;29.40;73.20;;;;;;5062691;28;20029;-49
2022/06/28 07:07:57;;;;;;;1.77;1.10;;;30.10;72.70;;;;;;5062631;28;20458;-48
2022/06/28 07:10:23;;;;;;;4.00;1.20;;;30.20;71.10;;;;;;5053348;28;20120;-48
2022/06/28 07:12:49;;;;;;;1.42;1.20;;;30.20;70.60;;;;;;5045754;28;20022;-54
2022/06/28 07:15:15;;;;;;;2.22;1.10;;;31.00;70.50;;;;;;5036931;28;20056;-49
2022/06/28 07:17:40;;;;;;;2.72;1.27;;;31.70;69.30;;;;;;5062154;28;20058;-50
2022/06/28 07:20:06;;;;;;;1.75;1.02;;;31.80;64.90;;;;;;5059649;28;20036;-49
2022/06/28 07:22:33;;;;;;;2.00;0.90;;;32.00;66.00;;;;;;5057831;28;20029;-50
2022/06/28 07:24:59;;;;;;;2.17;1.10;;;32.30;65.30;;;;;;5045062;28;20040;-47
2022/06/28 07:27:25;;;;;;;2.85;0.95;;;32.60;64.80;;;;;;5052377;28;20025;-47
2022/06/28 07:29:51;;;;;;;2.65;1.25;;;31.90;64.50;;;;;;5026715;28;20035;-48
2022/06/28 07:32:17;;;;;;;1.63;0.98;;;32.50;64.30;;;;;;5045100;28;20097;-47
2022/06/28 07:34:43;;;;;;;4.55;1.00;;;32.80;62.90;;;;;;5045295;28;20389;-49
2022/06/28 07:37:08;;;;;;;3.83;1.70;;;32.60;63.40;;;;;;5045445;28;20032;-50
2022/06/28 07:39:34;;;;;;;1.92;0.90;;;33.00;63.10;;;;;;5047514;28;20081;-51
2022/06/28 07:42:00;;;;;;;2.55;1.10;;;33.80;62.90;;;;;;5063883;28;20021;-49
2022/06/28 07:44:25;;;;;;;1.33;0.85;;;34.20;59.30;;;;;;5061651;28;20036;-50
2022/06/28 07:46:51;;;;;;;1.30;0.82;;;34.10;55.00;;;;;;5045779;28;20082;-52
2022/06/28 07:49:16;;;;;;;3.60;1.10;;;33.50;57.00;;;;;;5064492;28;20052;-51
2022/06/28 07:54:26;;;;;;;1.65;0.82;;;32.90;58.20;;;;;;5060397;28;20166;-50
2022/06/28 07:56:52;;;;;;;1.48;1.10;;;32.90;58.40;;;;;;5059013;28;20041;-52
2022/06/28 07:59:17;;;;;;;1.10;1.02;;;32.20;58.00;;;;;;5060263;28;20037;-53
2022/06/28 08:01:43;;;;;;;1.63;1.38;;;32.60;57.40;;;;;;5046778;28;20033;-53
2022/06/28 08:04:10;;;;;;;3.55;2.38;;;32.90;58.00;;;;;;5059824;28;20051;-52
2022/06/28 08:06:36;;;;;;;2.25;1.30;;;32.70;57.90;;;;;;5069011;28;20021;-48
2022/06/28 08:09:02;;;;;;;1.20;0.90;;;32.60;58.40;;;;;;5068225;28;20025;-54
2022/06/28 08:11:27;;;;;;;1.30;1.10;;;32.00;58.50;;;;;;5067567;28;20021;-48
2022/06/28 08:13:54;;;;;;;2.67;1.00;;;32.30;58.60;;;;;;5063029;28;20055;-47
2022/06/28 08:16:23;;;;;;;1.75;1.08;;;31.40;58.60;;;;;;5050902;28;20026;-50
2022/06/28 08:18:49;;;;;;;7.10;1.10;;;30.90;59.70;;;;;;5037509;28;20128;-49
2022/06/28 08:21:14;;;;;;;4.45;1.33;;;31.10;59.20;;;;;;5040909;28;20068;-49
2022/06/28 08:23:40;;;;;;;2.47;0.90;;;31.30;59.20;;;;;;5044146;28;20103;-47
2022/06/28 08:26:05;;;;;;;1.48;1.00;;;30.90;59.10;;;;;;5022488;28;20020;-46
2022/06/28 08:28:31;;;;;;;4.45;0.88;;;30.10;59.20;;;;;;5048809;28;20033;-49
2022/06/28 08:30:57;;;;;;;3.83;1.15;;;29.80;61.90;;;;;;5062684;28;20175;-49
2022/06/28 08:33:23;;;;;;;1.80;1.00;;;29.60;61.60;;;;;;5056367;28;20025;-51
2022/06/28 08:35:48;;;;;;;2.08;0.80;;;29.70;60.80;;;;;;5059557;28;20036;-46
2022/06/28 08:38:14;;;;;;;1.23;0.70;;;29.70;60.20;;;;;;5056189;28;20032;-45
2022/06/28 08:40:40;;;;;;;1.13;0.80;;;29.10;57.30;;;;;;5055507;28;20053;-53
2022/06/28 08:43:06;;;;;;;0.90;0.90;;;28.50;59.90;;;;;;5054580;28;20074;-54
2022/06/28 08:45:33;;;;;;;2.05;0.88;;;28.00;60.20;;;;;;5053027;28;20510;-51
2022/06/28 08:48:06;;;;;;;1.33;0.73;;;27.50;58.70;;;;;;5045414;28;20052;-46
2022/06/28 08:50:33;;;;;;;1.40;0.70;;;27.30;61.60;;;;;;5056202;28;20040;-47
2022/06/28 08:53:04;;;;;;;1.92;1.00;;;27.20;61.70;;;;;;5054878;28;20021;-49
2022/06/28 08:55:31;;;;;;;3.75;1.10;;;27.10;61.70;;;;;;5054518;28;20083;-48
2022/06/28 08:57:59;;;;;;;2.28;1.10;;;27.30;62.20;;;;;;5053877;28;20421;-47
2022/06/28 09:00:25;;;;;;;2.92;1.23;;;27.50;60.30;;;;;;5054699;28;20484;-47
2022/06/28 09:02:52;;;;;;;2.30;0.90;;;27.20;60.20;;;;;;5054232;28;20028;-48
2022/06/28 09:05:22;;;;;;;4.13;1.25;;;27.20;61.20;;;;;;5053851;28;20029;-46
2022/06/28 09:07:50;;;;;;;1.17;0.85;;;27.40;62.70;;;;;;5050244;28;20029;-46
2022/06/28 09:10:16;;;;;;;2.45;0.95;;;27.60;62.00;;;;;;5033847;28;20021;-48
2022/06/28 09:12:42;;;;;;;2.28;1.08;;;27.40;62.50;;;;;;5042279;28;20044;-45
2022/06/28 09:15:08;;;;;;;2.10;0.98;;;26.80;61.50;;;;;;5053512;28;20472;-48
2022/06/28 09:17:34;;;;;;;1.45;1.00;;;26.60;62.20;;;;;;5042787;28;20485;-51
2022/06/28 09:20:06;;;;;;;1.95;1.08;;;26.80;61.80;;;;;;5053970;28;20043;-50
2022/06/28 09:22:42;;;;;;;0.77;0.77;;;26.70;63.10;;;;;;5054031;28;20075;-49
2022/06/28 09:25:12;;;;;;;4.28;0.82;;;26.50;60.70;;;;;;5053841;28;20159;-53
2022/06/28 09:27:41;;;;;;;3.33;0.90;;;26.80;62.70;;;;;;5053346;28;20025;-54
2022/06/28 09:30:12;;;;;;;0.50;0.50;;;26.60;63.20;;;;;;5052898;28;20409;-52
2022/06/28 09:32:38;;;;;;;1.45;1.20;;;26.80;61.80;;;;;;5053666;28;20429;-54
2022/06/28 09:35:05;;;;;;;1.30;0.90;;;26.90;61.90;;;;;;5053269;28;20042;-54
2022/06/28 09:37:45;;;;;;;1.83;1.17;;;26.70;62.00;;;;;;5052768;28;20029;-50
2022/06/28 09:40:18;;;;;;;4.07;1.17;;;26.40;61.90;;;;;;5051098;28;20106;-51
2022/06/28 09:42:47;;;;;;;5.95;1.45;;;26.20;63.60;;;;;;5040165;28;20416;-49
2022/06/28 09:45:16;;;;;;;3.20;1.00;;;26.00;63.10;;;;;;5052714;28;20443;-51
2022/06/28 09:47:48;;;;;;;2.92;1.08;;;26.00;64.70;;;;;;5052492;28;20419;-50
2022/06/28 09:50:19;;;;;;;2.75;0.80;;;26.20;62.00;;;;;;5053249;28;20032;-51
2022/06/28 09:52:45;;;;;;;1.33;0.90;;;26.20;60.80;;;;;;5053149;28;20023;-52
2022/06/28 09:55:14;;;;;;;2.97;0.75;;;26.10;61.90;;;;;;5052852;28;20100;-53
2022/06/28 09:57:42;;;;;;;1.15;0.70;;;25.90;60.90;;;;;;5052231;28;20021;-49
2022/06/28 10:00:08;;;;;;;2.30;0.85;;;25.80;61.30;;;;;;5051518;28;20052;-49
2022/06/28 10:02:34;;;;;;;2.03;0.57;;;25.80;61.30;;;;;;5052772;28;20025;-51
2022/06/28 10:05:01;;;;;;;29.75;21.73;;;26.00;61.50;;;;;;5052720;28;20370;-51
2022/06/28 10:07:30;;;;;;;14.10;10.82;;;25.80;60.10;;;;;;5051356;28;20119;-51
2022/06/28 10:09:56;;;;;;;2.78;0.98;;;25.60;60.90;;;;;;5052686;28;20025;-48
2022/06/28 10:15:08;;;;;;;1.33;0.88;;;25.30;61.70;;;;;;5052679;28;20040;-49
2022/06/28 10:17:42;;;;;;;5.38;1.00;;;25.50;61.70;;;;;;5051923;28;20031;-54
2022/06/28 10:20:12;;;;;;;5.05;0.80;;;25.60;61.00;;;;;;5052443;28;20108;-51
2022/06/28 10:22:37;;;;;;;4.53;0.95;;;25.60;58.70;;;;;;5052043;28;20036;-52
2022/06/28 10:25:17;;;;;;;1.63;0.70;;;25.60;59.50;;;;;;5051851;28;20424;-51
2022/06/28 10:27:48;;;;;;;5.78;0.93;;;25.50;60.50;;;;;;5051979;28;20059;-51
2022/06/28 10:30:24;;;;;;;2.85;0.90;;;25.40;61.40;;;;;;5052517;28;20261;-50
2022/06/28 10:32:57;;;;;;;5.72;1.33;;;25.40;60.80;;;;;;5032544;28;20065;-51
2022/06/28 10:35:29;;;;;;;2.30;1.10;;;25.50;61.50;;;;;;5032218;28;20105;-50
2022/06/28 10:38:09;;;;;;;1.50;1.00;;;25.60;61.70;;;;;;5031568;28;20030;-54
2022/06/28 10:40:49;;;;;;;0.70;0.70;;;25.50;62.10;;;;;;5039265;28;20029;-49
2022/06/28 10:43:42;;;;;;;1.80;0.60;;;25.40;61.50;;;;;;5051737;28;20051;-51
2022/06/28 10:46:09;;;;;;;3.05;1.05;;;25.30;60.70;;;;;;5044233;28;20114;-48
2022/06/28 10:48:49;;;;;;;2.53;1.30;;;25.10;60.90;;;;;;5050161;28;20055;-47
2022/06/28 10:51:16;;;;;;;2.60;0.63;;;24.90;61.20;;;;;;5051656;28;20052;-49
2022/06/28 10:53:57;;;;;;;1.52;0.88;;;24.80;60.50;;;;;;5052077;28;20017;-47
2022/06/28 10:56:24;;;;;;;2.60;1.23;;;24.70;60.80;;;;;;5051894;28;20071;-48
2022/06/28 10:59:02;;;;;;;1.73;0.88;;;24.60;61.40;;;;;;5050893;28;20096;-51
2022/06/28 11:01:40;;;;;;;2.60;1.10;;;24.40;62.50;;;;;;5051603;28;20040;-53
2022/06/28 11:04:24;;;;;;;2.22;1.98;;;24.60;61.80;;;;;;5051778;28;20021;-51
2022/06/28 11:06:50;;;;;;;6.68;1.00;;;24.60;61.40;;;;;;5033557;28;20033;-52
2022/06/28 11:09:38;;;;;;;2.60;0.90;;;24.40;61.70;;;;;;5051427;28;20033;-50
2022/06/28 11:12:15;;;;;;;1.02;0.95;;;24.40;61.90;;;;;;5051731;28;20492;-50
2022/06/28 11:14:52;;;;;;;1.00;0.90;;;24.40;61.80;;;;;;5050417;28;20159;-50
2022/06/28 11:17:22;;;;;;;1.63;0.80;;;24.30;62.40;;;;;;5042354;28;20035;-53
2022/06/28 11:19:53;;;;;;;6.63;1.00;;;24.40;62.80;;;;;;5051338;28;20526;-47
2022/06/28 11:22:23;;;;;;;0.93;0.75;;;24.50;61.10;;;;;;5048437;28;20021;-52
2022/06/28 11:24:50;;;;;;;2.45;0.73;;;24.40;60.40;;;;;;5051511;28;20017;-50
2022/06/28 11:27:21;;;;;;;2.30;0.77;;;24.30;60.70;;;;;;5048093;28;20029;-53
2022/06/28 11:30:01;;;;;;;1.63;1.02;;;24.20;60.40;;;;;;5049698;28;20456;-52
2022/06/28 11:32:38;;;;;;;0.85;0.63;;;24.20;61.00;;;;;;5051458;28;20477;-49
2022/06/28 11:35:16;;;;;;;1.13;0.73;;;24.30;61.20;;;;;;5050615;28;20025;-50
2022/06/28 11:37:48;;;;;;;3.15;0.80;;;24.20;61.60;;;;;;5046715;28;20029;-49
2022/06/28 11:40:13;;;;;;;2.05;0.98;;;24.20;61.90;;;;;;5042243;28;20029;-53
2022/06/28 11:42:39;;;;;;;2.47;1.00;;;24.30;62.70;;;;;;5031467;28;20067;-51
2022/06/28 11:45:06;;;;;;;3.08;1.10;;;24.40;62.40;;;;;;5046206;28;20112;-54
2022/06/28 11:47:31;;;;;;;2.30;0.80;;;24.40;61.80;;;;;;5062197;23;20537;-50
2022/06/28 11:50:14;;;;;;;2.42;0.77;;;24.20;63.40;;;;;;5022825;28;20109;-48
2022/06/28 11:52:49;;;;;;;4.22;0.90;;;24.30;61.80;;;;;;5030813;28;20013;-47
2022/06/28 11:55:15;;;;;;;1.33;0.98;;;24.40;61.60;;;;;;5031225;28;20025;-45
2022/06/28 11:57:41;;;;;;;1.15;0.90;;;24.40;62.90;;;;;;5030364;28;20037;-48
2022/06/28 12:00:07;;;;;;;3.00;1.17;;;24.40;63.40;;;;;;5028011;28;20076;-45
2022/06/28 12:02:49;;;;;;;1.60;0.80;;;24.60;63.20;;;;;;5020341;28;20033;-47
2022/06/28 12:05:28;;;;;;;5.03;1.00;;;24.70;61.10;;;;;;5030938;28;20025;-50
2022/06/28 12:07:53;;;;;;;5.60;1.23;;;24.60;61.30;;;;;;5030338;28;20442;-50
2022/06/28 12:10:21;;;;;;;3.20;1.00;;;24.50;60.80;;;;;;5030979;28;20056;-50
2022/06/28 12:12:47;;;;;;;3.50;0.73;;;24.50;61.70;;;;;;5029474;28;20029;-48
2022/06/28 12:15:12;;;;;;;1.55;0.77;;;24.50;62.90;;;;;;5030744;28;20025;-47
2022/06/28 12:17:47;;;;;;;1.63;1.52;;;24.50;62.00;;;;;;5030101;28;20033;-46
2022/06/28 12:20:13;;;;;;;;;;;24.50;62.90;;;;;;5031779;28;20108;-50
2022/06/28 12:22:39;;;;;;;2.00;0.90;;;24.50;62.80;;;;;;5031019;28;19991;-53
2022/06/28 12:25:09;;;;;;;2.78;1.00;;;24.60;62.30;;;;;;5031039;28;20068;-49
2022/06/28 12:27:36;;;;;;;2.47;0.93;;;24.60;61.50;;;;;;5012230;28;20029;-50
2022/06/28 12:30:04;;;;;;;2.38;0.70;;;24.60;62.50;;;;;;5029764;28;20041;-49
2022/06/28 12:32:30;;;;;;;3.17;0.70;;;24.70;62.80;;;;;;5030399;28;20056;-51
2022/06/28 12:35:07;;;;;;;2.70;0.60;;;24.70;62.70;;;;;;5030911;28;20033;-52
2022/06/28 12:37:33;;;;;;;9.43;0.60;;;24.80;61.50;;;;;;5030022;28;20075;-50
2022/06/28 12:39:59;;;;;;;1.20;0.70;;;24.80;61.60;;;;;;5030745;28;20429;-48
2022/06/28 12:42:29;;;;;;;1.60;0.80;;;24.90;62.20;;;;;;5030939;28;20040;-49
2022/06/28 12:44:56;;;;;;;5.35;0.80;;;25.00;62.70;;;;;;5026700;28;20030;-47
2022/06/28 12:47:22;;;;;;;1.60;0.70;;;25.00;61.60;;;;;;5028868;28;20504;-47
2022/06/28 12:49:48;;;;;;;1.10;0.52;;;24.90;60.30;;;;;;5021844;28;20030;-49
2022/06/28 12:52:13;;;;;;;4.78;0.80;;;24.80;61.30;;;;;;5025151;28;20040;-47
2022/06/28 12:54:39;;;;;;;0.63;0.60;;;24.90;61.80;;;;;;5029572;28;20401;-49
2022/06/28 12:57:05;;;;;;;1.55;0.90;;;24.90;60.50;;;;;;5020948;28;20095;-47
2022/06/28 12:59:30;;;;;;;4.68;1.08;;;24.90;61.50;;;;;;5031430;28;20033;-49